Cullowhee, NC

11:06 PM EDT on August 30, 2015 (GMT -0400)
Cullowhee | | Change Station
CLOSE
Current Station
Personal Weather Station
Location: Cullowhee, NC
Elevation: 2359 ft
Nearby Weather Stations

Elev 2359 ft 35.30 °N, 83.16 °W | Updated 41 seconds ago

Overcast
Overcast
62.3 °F
Feels Like 62.3 °F
N
0.0
Wind Variable Wind from NNE
Gusts 0.0 mph

Today
High -- | Low -- °F
--% Chance of Precip.
Yesterday
High -- | Low -- °F
Precip. -- in
7:03 AM 8:02 PM
Full, 97% visible
Pressure 30.16 in
Visibility 9.0 miles
Clouds Overcast 11000 ft
Dew Point 62 °F
Humidity 98%
Rainfall 0.05 in
Snow Depth Not available.
UV 0 out of 12
Pollen 5.20 out of 12
Air Quality Not available.
Flu Activity Not available.
METAR KAVL 310254Z 18004KT 9SM OVC110 18/17 A3022 RMK AO2 RAB04E42 SLP211 P0000 60000 T01830167 50013
Pressure 30.16 in
Visibility 9.0 miles
Clouds Overcast 11000 ft
Dew Point 62 °F
Humidity 98%
Rainfall 0.05 in
Snow Depth Not available.
UV 0 out of 12
Pollen 5.20 out of 12
Air Quality Not available.
Flu Activity Not available.
METAR KAVL 310254Z 18004KT 9SM OVC110 18/17 A3022 RMK AO2 RAB04E42 SLP211 P0000 60000 T01830167 50013

10-Day Weather Forecast

×

Almanac

Astronomy

Aug. 30, 2015 Rise Set
Actual Time
Civil Twilight
Nautical Twilight
Astronomical Twilight
Moon
Length of Visible Light
Length of Day
Tomorrow will be .
, % of the Moon is Illuminated

Today's Extremes

State Highs State Lows

Community

WunderPhotos

Upload Photos

1,851,166 photos uploaded!

WunderBlogs® & News

Nearby

Air Quality

  Air Quality AQ Index Pollutant
Not available.

Snow Depth

Station Depth Elevation

Earthquake Activity

City Distance Mag. Time & Date
Minimum magnitude displayed is 2.5.

Coastal Water Temperatures

Place Temperature

Stations

Nearby Weather Stations

Station Location Temp. Windchill Dew Point Humidity Wind Precip. Elev Updated Type